createdAt,value
2022-11-20T00:00:57.502Z,10.80
2022-11-20T00:03:25.908Z,10.80
2022-11-20T00:05:54.136Z,10.70
2022-11-20T00:08:22.436Z,10.95
2022-11-20T00:10:50.805Z,11.07
2022-11-20T00:13:19.116Z,10.73
2022-11-20T00:15:49.007Z,10.30
2022-11-20T00:18:17.241Z,9.85
2022-11-20T00:20:45.515Z,9.70
2022-11-20T00:23:13.727Z,10.23
2022-11-20T00:25:42.035Z,9.93
2022-11-20T00:28:10.281Z,11.20
2022-11-20T00:30:38.609Z,11.32
2022-11-20T00:33:08.234Z,10.57
2022-11-20T00:35:36.465Z,10.43
2022-11-20T00:38:04.671Z,10.68
2022-11-20T00:40:32.961Z,10.10
2022-11-20T00:43:01.200Z,10.63
2022-11-20T00:45:29.443Z,10.95
2022-11-20T00:47:57.716Z,10.63
2022-11-20T00:50:27.319Z,10.50
2022-11-20T00:52:55.612Z,10.32
2022-11-20T00:55:23.891Z,10.80
2022-11-20T00:57:52.183Z,10.57
2022-11-20T01:00:20.605Z,10.57
2022-11-20T01:02:48.864Z,10.73
2022-11-20T01:05:17.107Z,10.00
2022-11-20T01:07:46.771Z,9.63
2022-11-20T01:10:15.123Z,10.63
2022-11-20T01:12:43.378Z,10.52
2022-11-20T01:15:11.930Z,10.05
2022-11-20T01:17:40.222Z,10.40
2022-11-20T01:20:09.244Z,9.18
2022-11-20T01:22:37.511Z,10.30
2022-11-20T01:25:07.749Z,9.98
2022-11-20T01:27:35.973Z,10.70
2022-11-20T01:30:04.232Z,9.90
2022-11-20T01:32:32.498Z,10.38
2022-11-20T01:35:00.781Z,10.27
2022-11-20T01:37:28.989Z,10.30
2022-11-20T01:39:57.231Z,9.95
2022-11-20T01:42:44.724Z,9.90
2022-11-20T01:45:31.530Z,10.90
2022-11-20T01:47:59.805Z,9.90
2022-11-20T01:50:29.806Z,10.23
2022-11-20T01:52:59.925Z,9.70
2022-11-20T01:55:31.325Z,10.23
2022-11-20T01:58:01.571Z,10.70
2022-11-20T02:00:29.784Z,10.30
2022-11-20T02:03:00.062Z,10.07
2022-11-20T02:05:31.308Z,10.10
2022-11-20T02:08:00.627Z,10.05
2022-11-20T02:10:29.876Z,11.00
2022-11-20T02:13:15.899Z,9.50
2022-11-20T02:15:45.905Z,10.98
2022-11-20T02:18:14.678Z,10.13
2022-11-20T02:20:44.079Z,10.43
2022-11-20T02:23:15.028Z,11.30
2022-11-20T02:25:45.094Z,10.90
2022-11-20T02:28:13.400Z,10.23
2022-11-20T02:30:41.712Z,10.00
2022-11-20T02:33:09.959Z,10.27
2022-11-20T02:35:45.700Z,11.23
2022-11-20T02:38:14.439Z,9.85
2022-11-20T02:40:42.712Z,11.43
2022-11-20T02:43:12.904Z,10.45
2022-11-20T02:45:41.615Z,10.68
2022-11-20T02:48:09.957Z,10.57
2022-11-20T02:50:39.937Z,11.00
2022-11-20T02:53:08.540Z,11.20
2022-11-20T02:55:37.167Z,10.40
2022-11-20T02:58:05.527Z,10.77
2022-11-20T03:00:36.377Z,11.60
2022-11-20T03:03:04.686Z,10.57
2022-11-20T03:05:32.974Z,10.18
2022-11-20T03:08:01.239Z,10.50
2022-11-20T03:10:29.497Z,10.87
2022-11-20T03:12:58.151Z,10.65
2022-11-20T03:15:26.523Z,10.48
2022-11-20T03:17:57.446Z,10.50
2022-11-20T03:20:26.026Z,10.23
2022-11-20T03:22:56.000Z,10.40
2022-11-20T03:25:24.857Z,10.68
2022-11-20T03:27:53.379Z,10.57
2022-11-20T03:30:23.984Z,9.77
2022-11-20T03:32:56.968Z,10.73
2022-11-20T03:35:25.534Z,10.15
2022-11-20T03:37:53.808Z,10.45
2022-11-20T03:40:22.098Z,10.30
2022-11-20T03:42:50.386Z,9.75
2022-11-20T03:45:19.564Z,10.82
2022-11-20T03:47:48.433Z,11.50
2022-11-20T03:50:18.216Z,10.90
2022-11-20T03:52:46.512Z,10.80
2022-11-20T03:55:14.777Z,9.88
2022-11-20T03:57:43.047Z,11.18
2022-11-20T04:00:11.937Z,10.40
2022-11-20T04:02:40.171Z,10.48
2022-11-20T04:05:08.915Z,10.52
2022-11-20T04:07:38.674Z,10.00
2022-11-20T04:10:07.456Z,11.02
2022-11-20T04:12:35.792Z,10.90
2022-11-20T04:15:04.003Z,10.52
2022-11-20T04:17:32.248Z,10.13
2022-11-20T04:20:00.491Z,10.77
2022-11-20T04:22:28.972Z,11.02
2022-11-20T04:24:58.596Z,10.50
2022-11-20T04:27:26.820Z,10.23
2022-11-20T04:29:55.032Z,10.45
2022-11-20T04:32:23.246Z,11.40
2022-11-20T04:34:51.541Z,10.30
2022-11-20T04:37:19.755Z,10.73
2022-11-20T04:39:47.956Z,10.45
2022-11-20T04:42:32.662Z,10.98
2022-11-20T04:45:00.891Z,10.90
2022-11-20T04:47:29.193Z,10.90
2022-11-20T04:49:57.582Z,11.32
2022-11-20T04:52:25.932Z,10.15
2022-11-20T04:54:54.770Z,10.35
2022-11-20T04:57:24.360Z,10.48
2022-11-20T04:59:52.615Z,11.35
2022-11-20T05:02:21.219Z,10.23
2022-11-20T05:04:49.719Z,11.02
2022-11-20T05:07:18.094Z,10.90
2022-11-20T05:09:46.434Z,10.43
2022-11-20T05:12:14.683Z,11.05
2022-11-20T05:14:44.296Z,10.07
2022-11-20T05:17:13.087Z,10.70
2022-11-20T05:19:41.345Z,10.43
2022-11-20T05:22:09.669Z,11.35
2022-11-20T05:24:37.892Z,11.30
2022-11-20T05:27:06.157Z,10.10
2022-11-20T05:29:34.442Z,10.90
2022-11-20T05:32:04.028Z,10.82
2022-11-20T05:34:32.309Z,10.80
2022-11-20T05:37:00.575Z,11.60
2022-11-20T05:39:28.845Z,11.57
2022-11-20T05:42:10.964Z,10.93
2022-11-20T05:44:39.228Z,10.80
2022-11-20T05:47:09.130Z,11.65
2022-11-20T05:49:37.428Z,10.80
2022-11-20T05:52:05.898Z,10.57
2022-11-20T05:54:34.422Z,10.30
2022-11-20T05:57:02.661Z,11.13
2022-11-20T05:59:30.898Z,10.30
2022-11-20T06:01:59.220Z,10.68
2022-11-20T06:04:28.921Z,10.98
2022-11-20T06:06:57.284Z,10.40
2022-11-20T06:09:25.620Z,11.40
2022-11-20T06:11:53.930Z,10.20
2022-11-20T06:14:22.155Z,11.20
2022-11-20T06:16:50.539Z,11.10
2022-11-20T06:19:18.978Z,11.35
2022-11-20T06:21:50.307Z,10.90
2022-11-20T06:24:18.610Z,11.38
2022-11-20T06:26:47.199Z,11.02
2022-11-20T06:29:15.508Z,11.00
2022-11-20T06:31:43.795Z,11.63
2022-11-20T06:34:12.051Z,11.30
2022-11-20T06:36:40.328Z,12.03
2022-11-20T06:39:09.989Z,11.65
2022-11-20T06:41:38.219Z,11.38
2022-11-20T06:44:07.076Z,11.40
2022-11-20T06:46:35.437Z,11.98
2022-11-20T06:49:03.756Z,11.02
2022-11-20T06:51:31.978Z,12.10
2022-11-20T06:54:01.871Z,11.65
2022-11-20T06:56:31.534Z,11.25
2022-11-20T06:58:59.812Z,11.45
2022-11-20T07:01:28.116Z,11.45
2022-11-20T07:03:56.407Z,11.20
2022-11-20T07:06:24.752Z,11.30
2022-11-20T07:08:53.549Z,11.20
2022-11-20T07:11:22.604Z,11.38
2022-11-20T07:13:52.353Z,11.70
2022-11-20T07:16:20.636Z,11.32
2022-11-20T07:18:50.701Z,12.07
2022-11-20T07:21:19.420Z,11.80
2022-11-20T07:23:47.743Z,11.40
2022-11-20T07:26:16.081Z,11.20
2022-11-20T07:28:46.703Z,12.20
2022-11-20T07:31:19.362Z,11.40
2022-11-20T07:33:48.289Z,12.03
2022-11-20T07:36:16.613Z,12.00
2022-11-20T07:38:44.867Z,11.50
2022-11-20T07:41:13.109Z,11.60
2022-11-20T07:43:41.849Z,11.77
2022-11-20T07:46:10.266Z,11.50
2022-11-20T07:48:39.956Z,12.07
2022-11-20T07:51:08.297Z,12.75
2022-11-20T07:53:36.548Z,11.68
2022-11-20T07:56:05.124Z,13.10
2022-11-20T07:58:35.455Z,12.43
2022-11-20T08:01:06.774Z,12.52
2022-11-20T08:03:35.248Z,13.70
2022-11-20T08:06:05.003Z,12.75
2022-11-20T08:08:34.057Z,13.40
2022-11-20T08:11:17.201Z,13.00
2022-11-20T08:14:02.849Z,12.95
2022-11-20T08:16:31.204Z,12.40
2022-11-20T08:18:59.520Z,12.88
2022-11-20T08:21:31.735Z,13.23
2022-11-20T08:24:03.539Z,13.80
2022-11-20T08:26:31.859Z,13.10
2022-11-20T08:29:00.623Z,13.60
2022-11-20T08:31:29.630Z,12.90
2022-11-20T08:33:58.074Z,13.80
2022-11-20T08:36:26.850Z,13.80
2022-11-20T08:38:56.998Z,13.25
2022-11-20T08:41:26.427Z,13.13
2022-11-20T08:43:55.322Z,14.02
2022-11-20T08:46:23.594Z,13.20
2022-11-20T08:48:51.916Z,14.20
2022-11-20T08:51:20.644Z,13.38
2022-11-20T08:53:50.472Z,13.60
2022-11-20T08:56:20.151Z,13.45
2022-11-20T08:59:17.952Z,14.90
2022-11-20T09:01:37.055Z,14.60
2022-11-20T09:04:05.793Z,14.43
2022-11-20T09:06:34.011Z,14.43
2022-11-20T09:09:06.660Z,14.85
2022-11-20T09:11:37.281Z,15.10
2022-11-20T09:14:05.645Z,14.10
2022-11-20T09:16:33.995Z,14.15
2022-11-20T09:19:28.666Z,13.90
2022-11-20T09:21:50.566Z,14.07
2022-11-20T09:24:18.946Z,14.40
2022-11-20T09:26:48.863Z,15.32
2022-11-20T09:29:17.072Z,14.50
2022-11-20T09:31:45.372Z,15.67
2022-11-20T09:34:13.670Z,14.05
2022-11-20T09:36:41.945Z,15.88
2022-11-20T09:39:10.219Z,15.38
2022-11-20T09:41:45.956Z,15.10
2022-11-20T09:44:21.716Z,15.25
2022-11-20T09:46:53.852Z,14.00
2022-11-20T09:49:30.857Z,15.23
2022-11-20T09:52:01.284Z,15.68
2022-11-20T09:54:32.466Z,14.82
2022-11-20T09:57:02.305Z,15.30
2022-11-20T09:59:35.775Z,15.88
2022-11-20T10:02:04.784Z,14.73
2022-11-20T10:04:38.216Z,15.60
2022-11-20T10:07:31.881Z,15.05
2022-11-20T10:10:00.954Z,16.70
2022-11-20T10:12:33.272Z,16.08
2022-11-20T10:15:07.950Z,16.20
2022-11-20T10:17:53.303Z,16.00
2022-11-20T10:20:25.937Z,16.05
2022-11-20T10:23:02.620Z,16.37
2022-11-20T10:25:34.066Z,16.95
2022-11-20T10:28:12.526Z,16.58
2022-11-20T10:30:45.039Z,16.40
2022-11-20T10:33:16.659Z,18.20
2022-11-20T10:35:47.702Z,16.35
2022-11-20T10:38:18.726Z,16.95
2022-11-20T10:40:48.761Z,18.00
2022-11-20T10:43:19.227Z,18.10
2022-11-20T10:45:52.144Z,17.05
2022-11-20T10:48:23.619Z,16.48
2022-11-20T10:51:05.617Z,17.95
2022-11-20T10:53:43.876Z,17.65
2022-11-20T10:56:14.590Z,19.50
2022-11-20T10:58:48.418Z,17.30
2022-11-20T11:01:19.142Z,17.35
2022-11-20T11:03:47.614Z,18.02
2022-11-20T11:06:20.495Z,19.33
2022-11-20T11:08:49.594Z,18.57
2022-11-20T11:11:23.512Z,19.52
2022-11-20T11:13:52.013Z,18.75
2022-11-20T11:16:25.386Z,18.52
2022-11-20T11:18:54.032Z,18.75
2022-11-20T11:21:26.459Z,19.67
2022-11-20T11:24:19.731Z,18.98
2022-11-20T11:26:54.722Z,19.73
2022-11-20T11:29:23.123Z,19.13
2022-11-20T11:31:52.899Z,19.00
2022-11-20T11:34:21.168Z,19.88
2022-11-20T11:36:55.164Z,19.90
2022-11-20T11:39:24.043Z,19.98
2022-11-20T11:41:52.783Z,20.52
2022-11-20T11:44:39.845Z,19.98
2022-11-20T11:47:12.676Z,21.80
2022-11-20T11:49:41.327Z,22.48
2022-11-20T11:52:14.999Z,21.23
2022-11-20T11:54:46.501Z,22.95
2022-11-20T11:57:18.729Z,20.98
2022-11-20T11:59:54.045Z,22.40
2022-11-20T12:02:28.467Z,22.67
2022-11-20T12:05:00.530Z,21.08
2022-11-20T12:07:51.348Z,21.90
2022-11-20T12:10:22.853Z,21.80
2022-11-20T12:12:53.711Z,22.30
2022-11-20T12:15:28.212Z,22.00
2022-11-20T12:17:57.878Z,21.45
2022-11-20T12:20:28.774Z,23.30
2022-11-20T12:22:59.059Z,22.38
2022-11-20T12:25:28.656Z,22.00
2022-11-20T12:28:11.751Z,23.00
2022-11-20T12:30:44.388Z,21.88
2022-11-20T12:33:20.223Z,23.15
2022-11-20T12:35:56.686Z,21.50
2022-11-20T12:38:42.827Z,21.10
2022-11-20T12:41:15.388Z,21.42
2022-11-20T12:44:05.041Z,22.70
2022-11-20T12:46:37.643Z,22.45
2022-11-20T12:49:20.863Z,21.23
2022-11-20T12:52:01.480Z,21.95
2022-11-20T12:54:46.484Z,22.70
2022-11-20T12:57:19.390Z,20.50
2022-11-20T12:59:57.771Z,22.03
2022-11-20T13:02:28.808Z,22.42
2022-11-20T13:05:16.086Z,21.92
2022-11-20T13:07:44.933Z,22.35
2022-11-20T13:10:17.641Z,22.53
2022-11-20T13:12:48.792Z,21.80
2022-11-20T13:15:20.948Z,22.08
2022-11-20T13:17:53.127Z,22.67
2022-11-20T13:20:22.770Z,21.60
2022-11-20T13:22:51.971Z,21.95
2022-11-20T13:25:27.113Z,21.25
2022-11-20T13:27:56.011Z,24.20
2022-11-20T13:30:25.464Z,21.47
2022-11-20T13:32:55.147Z,22.83
2022-11-20T13:35:28.991Z,23.08
2022-11-20T13:38:08.498Z,22.83
2022-11-20T13:40:38.360Z,22.80
2022-11-20T13:43:22.522Z,23.10
2022-11-20T13:45:57.968Z,23.33
2022-11-20T13:48:27.777Z,22.83
2022-11-20T13:51:02.629Z,22.40
2022-11-20T13:53:37.977Z,24.48
2022-11-20T13:56:09.464Z,24.07
2022-11-20T13:58:43.236Z,25.30
2022-11-20T14:01:12.873Z,24.58
2022-11-20T14:04:05.005Z,24.60
2022-11-20T14:06:32.404Z,24.83
2022-11-20T14:09:01.228Z,24.63
2022-11-20T14:11:30.501Z,25.15
2022-11-20T14:14:00.374Z,25.05
2022-11-20T14:16:30.116Z,25.60
2022-11-20T14:18:59.233Z,26.37
2022-11-20T14:21:28.527Z,24.63
2022-11-20T14:24:05.741Z,25.70
2022-11-20T14:26:34.484Z,25.63
2022-11-20T14:29:02.985Z,26.58
2022-11-20T14:31:31.409Z,26.55
2022-11-20T14:33:59.767Z,29.00
2022-11-20T14:36:28.521Z,27.75
2022-11-20T14:38:58.156Z,30.00
2022-11-20T14:41:26.797Z,28.50
2022-11-20T14:43:57.176Z,26.98
2022-11-20T14:46:25.839Z,28.15
2022-11-20T14:48:56.285Z,27.57
2022-11-20T14:51:33.007Z,26.20
2022-11-20T14:54:12.184Z,28.73
2022-11-20T14:56:40.503Z,27.55
2022-11-20T14:59:08.928Z,28.47
2022-11-20T15:01:38.421Z,26.77
2022-11-20T15:04:08.857Z,27.35
2022-11-20T15:06:37.627Z,26.45
2022-11-20T15:09:06.340Z,27.20
2022-11-20T15:11:37.219Z,28.13
2022-11-20T15:14:06.794Z,27.40
2022-11-20T15:16:35.451Z,27.73
2022-11-20T15:19:05.447Z,27.27
2022-11-20T15:21:33.670Z,27.92
2022-11-20T15:24:01.985Z,27.98
2022-11-20T15:26:30.687Z,27.42
2022-11-20T15:29:00.399Z,25.70
2022-11-20T15:31:28.670Z,27.33
2022-11-20T15:33:56.884Z,26.40
2022-11-20T15:36:25.179Z,26.50
2022-11-20T15:38:53.449Z,26.80
2022-11-20T15:41:21.777Z,24.92
2022-11-20T15:43:50.876Z,25.48
2022-11-20T15:46:23.671Z,25.80
2022-11-20T15:48:54.033Z,25.90
2022-11-20T15:51:27.216Z,24.52
2022-11-20T15:53:55.557Z,24.27
2022-11-20T15:56:23.843Z,24.70
2022-11-20T15:58:52.151Z,26.10
2022-11-20T16:01:23.511Z,24.92
2022-11-20T16:03:51.922Z,24.40
2022-11-20T16:06:20.292Z,25.10
2022-11-20T16:08:48.579Z,24.60
2022-11-20T16:11:17.762Z,22.95
2022-11-20T16:14:03.606Z,23.13
2022-11-20T16:16:34.043Z,20.70
2022-11-20T16:19:02.304Z,22.55
2022-11-20T16:21:32.426Z,22.80
2022-11-20T16:24:01.004Z,23.10
2022-11-20T16:26:29.499Z,20.87
2022-11-20T16:28:58.138Z,20.17
2022-11-20T16:31:26.684Z,21.33
2022-11-20T16:33:57.047Z,20.30
2022-11-20T16:36:26.080Z,19.85
2022-11-20T16:38:55.155Z,20.85
2022-11-20T16:41:23.405Z,19.65
2022-11-20T16:43:52.778Z,20.57
2022-11-20T16:46:22.054Z,19.52
2022-11-20T16:48:57.139Z,19.13
2022-11-20T16:51:25.747Z,18.53
2022-11-20T16:53:55.796Z,19.88
2022-11-20T16:56:24.944Z,18.52
2022-11-20T16:58:53.698Z,20.25
2022-11-20T17:01:22.595Z,18.90
2022-11-20T17:03:57.525Z,18.70
2022-11-20T17:06:26.639Z,18.93
2022-11-20T17:08:55.753Z,17.42
2022-11-20T17:11:24.033Z,18.25
2022-11-20T17:13:52.441Z,17.73
2022-11-20T17:16:21.517Z,16.52
2022-11-20T17:18:50.283Z,17.65
2022-11-20T17:21:20.264Z,17.67
2022-11-20T17:23:48.832Z,16.70
2022-11-20T17:26:17.875Z,17.10
2022-11-20T17:28:46.765Z,16.30
2022-11-20T17:31:16.061Z,16.38
2022-11-20T17:33:45.222Z,16.30
2022-11-20T17:36:14.399Z,16.50
2022-11-20T17:38:44.638Z,15.30
2022-11-20T17:41:13.677Z,15.45
2022-11-20T17:43:42.845Z,15.35
2022-11-20T17:46:11.865Z,15.43
2022-11-20T17:48:42.308Z,15.30
2022-11-20T17:51:12.138Z,15.80
2022-11-20T17:53:41.207Z,16.23
2022-11-20T17:56:28.419Z,15.60
2022-11-20T17:58:56.740Z,15.23
2022-11-20T18:01:25.451Z,16.70
2022-11-20T18:03:53.791Z,16.92
2022-11-20T18:06:22.843Z,15.30
2022-11-20T18:08:51.427Z,14.98
2022-11-20T18:11:22.535Z,16.90
2022-11-20T18:14:09.729Z,17.20
2022-11-20T18:16:42.881Z,16.50
2022-11-20T18:19:11.801Z,15.10
2022-11-20T18:21:40.058Z,16.67
2022-11-20T18:24:08.694Z,16.05
2022-11-20T18:26:43.914Z,15.43
2022-11-20T18:29:12.902Z,16.40
2022-11-20T18:31:41.403Z,16.10
2022-11-20T18:34:12.927Z,15.77
2022-11-20T18:36:41.611Z,14.77
2022-11-20T18:39:11.411Z,14.68
2022-11-20T18:41:59.329Z,15.27
2022-11-20T18:44:46.173Z,15.00
2022-11-20T18:47:15.823Z,15.80
2022-11-20T18:49:46.132Z,14.50
2022-11-20T18:52:14.687Z,15.00
2022-11-20T18:54:43.005Z,13.98
2022-11-20T18:57:15.019Z,15.18
2022-11-20T18:59:43.821Z,15.35
2022-11-20T19:02:13.129Z,15.20
2022-11-20T19:04:41.502Z,14.60
2022-11-20T19:07:11.950Z,15.32
2022-11-20T19:09:40.742Z,15.50
2022-11-20T19:12:09.669Z,14.23
2022-11-20T19:14:39.435Z,14.70
2022-11-20T19:17:08.335Z,14.02
2022-11-20T19:19:36.755Z,14.20
2022-11-20T19:22:05.361Z,14.80
2022-11-20T19:24:33.884Z,15.13
2022-11-20T19:27:02.270Z,13.88
2022-11-20T19:29:31.128Z,14.98
2022-11-20T19:32:00.813Z,14.23
2022-11-20T19:34:29.084Z,14.73
2022-11-20T19:36:57.331Z,14.55
2022-11-20T19:39:25.843Z,14.77
2022-11-20T19:41:54.234Z,13.85
2022-11-20T19:44:22.493Z,13.20
2022-11-20T19:46:51.316Z,14.50
2022-11-20T19:49:21.312Z,14.00
2022-11-20T19:51:51.060Z,12.60
2022-11-20T19:54:19.439Z,13.10
2022-11-20T19:56:49.417Z,13.63
2022-11-20T19:59:17.757Z,14.85
2022-11-20T20:01:46.126Z,13.80
2022-11-20T20:04:14.445Z,13.50
2022-11-20T20:06:44.621Z,12.93
2022-11-20T20:09:14.059Z,14.30
2022-11-20T20:11:42.770Z,14.10
2022-11-20T20:14:14.709Z,16.45
2022-11-20T20:16:43.089Z,13.70
2022-11-20T20:19:13.935Z,15.98
2022-11-20T20:21:43.880Z,14.95
2022-11-20T20:24:12.766Z,13.98
2022-11-20T20:26:41.030Z,14.70
2022-11-20T20:29:09.374Z,13.80
2022-11-20T20:31:37.599Z,13.30
2022-11-20T20:34:06.071Z,14.38
2022-11-20T20:36:34.681Z,14.27
2022-11-20T20:39:04.404Z,13.80
2022-11-20T20:41:32.759Z,13.90
2022-11-20T20:44:18.650Z,14.15
2022-11-20T20:46:47.015Z,15.07
2022-11-20T20:49:15.257Z,15.25
2022-11-20T20:51:43.544Z,14.07
2022-11-20T20:54:13.160Z,14.65
2022-11-20T20:56:41.492Z,13.70
2022-11-20T20:59:09.843Z,14.05
2022-11-20T21:01:38.405Z,14.73
2022-11-20T21:04:06.843Z,15.40
2022-11-20T21:06:35.072Z,13.77
2022-11-20T21:09:03.344Z,15.20
2022-11-20T21:11:32.928Z,15.45
2022-11-20T21:14:01.189Z,15.00
2022-11-20T21:16:40.751Z,14.52
2022-11-20T21:19:09.070Z,14.35
2022-11-20T21:21:55.076Z,15.20
2022-11-20T21:24:23.732Z,14.20
2022-11-20T21:26:53.655Z,14.23
2022-11-20T21:29:22.323Z,14.63
2022-11-20T21:31:50.636Z,14.97
2022-11-20T21:34:19.079Z,15.27
2022-11-20T21:36:47.400Z,15.60
2022-11-20T21:39:16.281Z,15.38
2022-11-20T21:41:44.872Z,15.00
2022-11-20T21:44:30.473Z,14.67
2022-11-20T21:47:03.868Z,14.00
2022-11-20T21:49:32.084Z,15.80
2022-11-20T21:52:00.328Z,14.48
2022-11-20T21:54:28.587Z,15.30
2022-11-20T21:56:56.983Z,15.40
2022-11-20T21:59:26.783Z,15.65
2022-11-20T22:01:55.153Z,14.27
2022-11-20T22:04:24.587Z,15.63
2022-11-20T22:06:53.118Z,14.90
2022-11-20T22:09:21.382Z,15.55
2022-11-20T22:11:49.647Z,15.65
2022-11-20T22:14:23.817Z,14.60
2022-11-20T22:16:54.827Z,15.40
2022-11-20T22:19:23.841Z,15.18
2022-11-20T22:21:52.211Z,16.10
2022-11-20T22:24:21.627Z,15.90
2022-11-20T22:26:50.365Z,16.02
2022-11-20T22:29:19.741Z,16.90
2022-11-20T22:31:48.193Z,16.98
2022-11-20T22:34:17.788Z,15.27
2022-11-20T22:36:46.108Z,16.58
2022-11-20T22:39:14.343Z,15.63
2022-11-20T22:41:42.636Z,17.33
2022-11-20T22:44:10.971Z,16.50
2022-11-20T22:46:39.470Z,16.25
2022-11-20T22:49:09.466Z,16.67
2022-11-20T22:51:40.062Z,16.13
2022-11-20T22:54:09.807Z,16.95
2022-11-20T22:56:38.018Z,16.83
2022-11-20T22:59:06.276Z,16.38
2022-11-20T23:01:36.576Z,17.13
2022-11-20T23:04:05.648Z,16.58
2022-11-20T23:06:35.091Z,16.73
2022-11-20T23:09:05.244Z,16.88
2022-11-20T23:11:34.032Z,15.70
2022-11-20T23:14:03.241Z,16.50
2022-11-20T23:16:32.351Z,16.73
2022-11-20T23:19:01.405Z,16.98
2022-11-20T23:21:29.798Z,17.52
2022-11-20T23:23:59.158Z,17.30
2022-11-20T23:26:29.589Z,18.65
2022-11-20T23:28:58.504Z,18.33
2022-11-20T23:31:27.395Z,18.02
2022-11-20T23:33:56.079Z,18.52
2022-11-20T23:36:24.493Z,17.00
2022-11-20T23:38:52.856Z,18.88
2022-11-20T23:41:21.092Z,19.47
2022-11-20T23:43:50.681Z,19.75
2022-11-20T23:46:19.122Z,18.10
2022-11-20T23:48:47.591Z,18.88
2022-11-20T23:51:16.695Z,18.63
2022-11-20T23:53:44.985Z,19.73
2022-11-20T23:56:15.141Z,19.48
2022-11-20T23:58:43.823Z,19.08
